sensor_id;sensor_type;location;lat;lon;timestamp;pressure;altitude;pressure_sealevel;temperature;humidity
48606;BME280;8482;54.396;18.590;2023-05-25T00:00:21;101782.75;;;16.74;59.98
48606;BME280;8482;54.396;18.590;2023-05-25T00:02:47;101792.50;;;16.75;60.23
48606;BME280;8482;54.396;18.590;2023-05-25T00:05:13;101797.00;;;16.74;59.89
48606;BME280;8482;54.396;18.590;2023-05-25T00:07:39;101799.81;;;16.73;60.26
48606;BME280;8482;54.396;18.590;2023-05-25T00:10:07;101800.22;;;16.68;60.51
48606;BME280;8482;54.396;18.590;2023-05-25T00:12:33;101788.34;;;16.61;60.65
48606;BME280;8482;54.396;18.590;2023-05-25T00:15:01;101767.88;;;16.50;60.66
48606;BME280;8482;54.396;18.590;2023-05-25T00:17:26;101782.72;;;16.54;61.06
48606;BME280;8482;54.396;18.590;2023-05-25T00:19:54;101784.06;;;16.48;61.36
48606;BME280;8482;54.396;18.590;2023-05-25T00:22:22;101791.41;;;16.46;61.87
48606;BME280;8482;54.396;18.590;2023-05-25T00:24:48;101780.00;;;16.44;62.10
48606;BME280;8482;54.396;18.590;2023-05-25T00:27:14;101788.84;;;16.45;62.32
48606;BME280;8482;54.396;18.590;2023-05-25T00:29:39;101788.13;;;16.43;62.64
48606;BME280;8482;54.396;18.590;2023-05-25T00:32:06;101784.88;;;16.39;62.89
48606;BME280;8482;54.396;18.590;2023-05-25T00:34:31;101781.78;;;16.34;63.08
48606;BME280;8482;54.396;18.590;2023-05-25T00:36:57;101795.16;;;16.34;63.58
48606;BME280;8482;54.396;18.590;2023-05-25T00:39:23;101801.78;;;16.30;63.98
48606;BME280;8482;54.396;18.590;2023-05-25T00:41:49;101804.69;;;16.27;64.07
48606;BME280;8482;54.396;18.590;2023-05-25T00:44:15;101805.38;;;16.19;64.68
48606;BME280;8482;54.396;18.590;2023-05-25T00:46:51;101810.47;;;16.22;65.05
48606;BME280;8482;54.396;18.590;2023-05-25T00:49:19;101817.19;;;16.16;65.21
48606;BME280;8482;54.396;18.590;2023-05-25T00:51:47;101818.75;;;16.19;65.38
48606;BME280;8482;54.396;18.590;2023-05-25T00:54:17;101816.22;;;16.17;65.60
48606;BME280;8482;54.396;18.590;2023-05-25T00:56:50;101816.06;;;16.19;65.87
48606;BME280;8482;54.396;18.590;2023-05-25T00:59:28;101826.06;;;16.17;66.03
48606;BME280;8482;54.396;18.590;2023-05-25T01:02:03;101815.03;;;16.10;66.15
48606;BME280;8482;54.396;18.590;2023-05-25T01:04:36;101828.41;;;16.10;66.53
48606;BME280;8482;54.396;18.590;2023-05-25T01:07:05;101816.41;;;16.04;66.46
48606;BME280;8482;54.396;18.590;2023-05-25T01:09:37;101820.34;;;16.00;66.74
48606;BME280;8482;54.396;18.590;2023-05-25T01:12:05;101814.53;;;15.95;66.91
48606;BME280;8482;54.396;18.590;2023-05-25T01:14:33;101816.81;;;16.00;67.35
48606;BME280;8482;54.396;18.590;2023-05-25T01:17:00;101819.63;;;15.98;67.42
48606;BME280;8482;54.396;18.590;2023-05-25T01:19:28;101817.06;;;15.97;67.59
48606;BME280;8482;54.396;18.590;2023-05-25T01:25:08;101813.78;;;15.93;67.67
48606;BME280;8482;54.396;18.590;2023-05-25T01:28:10;101810.28;;;15.92;67.75
48606;BME280;8482;54.396;18.590;2023-05-25T01:30:40;101814.78;;;15.92;67.93
48606;BME280;8482;54.396;18.590;2023-05-25T01:33:09;101810.03;;;15.84;68.39
48606;BME280;8482;54.396;18.590;2023-05-25T01:35:36;101815.31;;;15.86;68.62
48606;BME280;8482;54.396;18.590;2023-05-25T01:38:03;101815.53;;;15.83;68.49
48606;BME280;8482;54.396;18.590;2023-05-25T01:40:30;101812.13;;;15.81;68.61
48606;BME280;8482;54.396;18.590;2023-05-25T01:42:56;101812.13;;;15.81;68.95
48606;BME280;8482;54.396;18.590;2023-05-25T01:45:22;101813.84;;;15.82;68.92
48606;BME280;8482;54.396;18.590;2023-05-25T01:50:42;101823.69;;;15.81;68.90
48606;BME280;8482;54.396;18.590;2023-05-25T01:53:22;101829.06;;;15.81;68.86
48606;BME280;8482;54.396;18.590;2023-05-25T01:55:58;101831.84;;;15.79;69.37
48606;BME280;8482;54.396;18.590;2023-05-25T01:58:32;101832.94;;;15.77;69.14
48606;BME280;8482;54.396;18.590;2023-05-25T02:01:00;101828.72;;;15.74;69.22
48606;BME280;8482;54.396;18.590;2023-05-25T02:03:27;101838.31;;;15.77;69.29
48606;BME280;8482;54.396;18.590;2023-05-25T02:05:53;101833.44;;;15.71;69.34
48606;BME280;8482;54.396;18.590;2023-05-25T02:08:19;101837.00;;;15.71;69.29
48606;BME280;8482;54.396;18.590;2023-05-25T02:10:46;101832.03;;;15.67;69.23
48606;BME280;8482;54.396;18.590;2023-05-25T02:13:11;101830.19;;;15.67;69.43
48606;BME280;8482;54.396;18.590;2023-05-25T02:15:37;101824.97;;;15.66;69.56
48606;BME280;8482;54.396;18.590;2023-05-25T02:18:03;101829.59;;;15.63;69.44
48606;BME280;8482;54.396;18.590;2023-05-25T02:20:31;101826.94;;;15.63;69.34
48606;BME280;8482;54.396;18.590;2023-05-25T02:22:57;101828.06;;;15.61;69.31
48606;BME280;8482;54.396;18.590;2023-05-25T02:25:22;101808.84;;;15.56;69.26
48606;BME280;8482;54.396;18.590;2023-05-25T02:27:49;101828.88;;;15.61;69.35
48606;BME280;8482;54.396;18.590;2023-05-25T02:30:15;101813.22;;;15.57;69.29
48606;BME280;8482;54.396;18.590;2023-05-25T02:32:41;101815.31;;;15.53;69.16
48606;BME280;8482;54.396;18.590;2023-05-25T02:35:07;101820.78;;;15.52;69.10
48606;BME280;8482;54.396;18.590;2023-05-25T02:37:33;101820.91;;;15.50;69.33
48606;BME280;8482;54.396;18.590;2023-05-25T02:39:59;101825.41;;;15.50;69.46
48606;BME280;8482;54.396;18.590;2023-05-25T02:42:24;101826.50;;;15.47;69.42
48606;BME280;8482;54.396;18.590;2023-05-25T02:44:50;101825.28;;;15.51;69.66
48606;BME280;8482;54.396;18.590;2023-05-25T02:47:17;101828.06;;;15.50;69.57
48606;BME280;8482;54.396;18.590;2023-05-25T02:49:44;101829.91;;;15.49;69.56
48606;BME280;8482;54.396;18.590;2023-05-25T02:52:10;101830.88;;;15.48;69.43
48606;BME280;8482;54.396;18.590;2023-05-25T02:54:36;101841.56;;;15.48;69.51
48606;BME280;8482;54.396;18.590;2023-05-25T02:57:03;101825.06;;;15.43;69.46
48606;BME280;8482;54.396;18.590;2023-05-25T02:59:29;101827.88;;;15.41;69.96
48606;BME280;8482;54.396;18.590;2023-05-25T03:01:57;101823.63;;;15.39;69.89
48606;BME280;8482;54.396;18.590;2023-05-25T03:04:23;101818.13;;;15.40;70.02
48606;BME280;8482;54.396;18.590;2023-05-25T03:06:49;101802.63;;;15.34;69.98
48606;BME280;8482;54.396;18.590;2023-05-25T03:09:15;101808.31;;;15.41;70.12
48606;BME280;8482;54.396;18.590;2023-05-25T03:11:41;101812.06;;;15.38;70.32
48606;BME280;8482;54.396;18.590;2023-05-25T03:14:06;101813.78;;;15.39;70.16
48606;BME280;8482;54.396;18.590;2023-05-25T03:16:32;101823.63;;;15.39;70.36
48606;BME280;8482;54.396;18.590;2023-05-25T03:19:02;101822.75;;;15.38;70.58
48606;BME280;8482;54.396;18.590;2023-05-25T03:21:27;101821.94;;;15.38;70.76
48606;BME280;8482;54.396;18.590;2023-05-25T03:23:53;101820.22;;;15.37;70.73
48606;BME280;8482;54.396;18.590;2023-05-25T03:26:19;101818.53;;;15.36;70.85
48606;BME280;8482;54.396;18.590;2023-05-25T03:28:45;101814.41;;;15.31;70.78
48606;BME280;8482;54.396;18.590;2023-05-25T03:31:10;101816.25;;;15.31;71.12
48606;BME280;8482;54.396;18.590;2023-05-25T03:33:37;101824.72;;;15.36;71.15
48606;BME280;8482;54.396;18.590;2023-05-25T03:36:08;101819.75;;;15.31;71.05
48606;BME280;8482;54.396;18.590;2023-05-25T03:38:35;101837.63;;;15.31;71.11
48606;BME280;8482;54.396;18.590;2023-05-25T03:41:01;101841.13;;;15.31;71.18
48606;BME280;8482;54.396;18.590;2023-05-25T03:43:27;101846.63;;;15.30;71.16
48606;BME280;8482;54.396;18.590;2023-05-25T03:45:56;101837.63;;;15.31;71.13
48606;BME280;8482;54.396;18.590;2023-05-25T03:48:25;101833.34;;;15.28;70.64
48606;BME280;8482;54.396;18.590;2023-05-25T03:50:50;101836.41;;;15.24;70.75
48606;BME280;8482;54.396;18.590;2023-05-25T03:53:16;101824.78;;;15.13;70.87
48606;BME280;8482;54.396;18.590;2023-05-25T03:55:42;101828.03;;;15.17;71.26
48606;BME280;8482;54.396;18.590;2023-05-25T03:58:08;101819.19;;;15.16;71.44
48606;BME280;8482;54.396;18.590;2023-05-25T04:00:37;101828.03;;;15.17;71.05
48606;BME280;8482;54.396;18.590;2023-05-25T04:03:03;101830.72;;;15.17;71.30
48606;BME280;8482;54.396;18.590;2023-05-25T04:05:29;101831.44;;;15.19;71.06
48606;BME280;8482;54.396;18.590;2023-05-25T04:07:55;101819.91;;;15.19;71.06
48606;BME280;8482;54.396;18.590;2023-05-25T04:10:22;101818.22;;;15.17;70.87
48606;BME280;8482;54.396;18.590;2023-05-25T04:12:47;101818.22;;;15.17;71.03
48606;BME280;8482;54.396;18.590;2023-05-25T04:15:13;101818.94;;;15.20;71.48
48606;BME280;8482;54.396;18.590;2023-05-25T04:17:40;101818.81;;;15.21;71.48
48606;BME280;8482;54.396;18.590;2023-05-25T04:20:08;101816.88;;;15.23;71.62
48606;BME280;8482;54.396;18.590;2023-05-25T04:22:35;101818.06;;;15.19;71.55
48606;BME280;8482;54.396;18.590;2023-05-25T04:25:05;101823.03;;;15.24;71.71
48606;BME280;8482;54.396;18.590;2023-05-25T04:27:32;101824.03;;;15.23;71.89
48606;BME280;8482;54.396;18.590;2023-05-25T04:29:58;101814.44;;;15.20;71.82
48606;BME280;8482;54.396;18.590;2023-05-25T04:32:24;101837.72;;;15.29;72.00
48606;BME280;8482;54.396;18.590;2023-05-25T04:34:55;101829.34;;;15.34;72.02
48606;BME280;8482;54.396;18.590;2023-05-25T04:37:22;101829.09;;;15.37;71.95
48606;BME280;8482;54.396;18.590;2023-05-25T04:39:52;101839.38;;;15.42;72.36
48606;BME280;8482;54.396;18.590;2023-05-25T04:42:18;101837.44;;;15.44;72.15
48606;BME280;8482;54.396;18.590;2023-05-25T04:44:49;101831.13;;;15.45;71.89
48606;BME280;8482;54.396;18.590;2023-05-25T04:47:18;101844.84;;;15.52;71.87
48606;BME280;8482;54.396;18.590;2023-05-25T04:49:44;101839.25;;;15.55;71.82
48606;BME280;8482;54.396;18.590;2023-05-25T04:52:10;101835.94;;;15.62;71.80
48606;BME280;8482;54.396;18.590;2023-05-25T04:54:35;101837.38;;;15.67;71.59
48606;BME280;8482;54.396;18.590;2023-05-25T04:57:02;101827.03;;;15.62;71.39
48606;BME280;8482;54.396;18.590;2023-05-25T04:59:28;101837.97;;;15.70;71.54
48606;BME280;8482;54.396;18.590;2023-05-25T05:01:54;101832.63;;;15.70;71.60
48606;BME280;8482;54.396;18.590;2023-05-25T05:04:20;101830.66;;;15.72;71.49
48606;BME280;8482;54.396;18.590;2023-05-25T05:06:45;101841.94;;;15.76;71.56
48606;BME280;8482;54.396;18.590;2023-05-25T05:09:11;101839.75;;;15.81;71.57
48606;BME280;8482;54.396;18.590;2023-05-25T05:11:37;101842.91;;;15.86;71.29
48606;BME280;8482;54.396;18.590;2023-05-25T05:14:04;101845.91;;;15.93;71.46
48606;BME280;8482;54.396;18.590;2023-05-25T05:16:30;101840.16;;;15.98;71.33
48606;BME280;8482;54.396;18.590;2023-05-25T05:19:02;101838.22;;;16.00;70.90
48606;BME280;8482;54.396;18.590;2023-05-25T05:21:28;101832.22;;;16.07;70.89
48606;BME280;8482;54.396;18.590;2023-05-25T05:23:54;101831.81;;;16.12;70.68
48606;BME280;8482;54.396;18.590;2023-05-25T05:26:21;101833.50;;;16.13;70.83
48606;BME280;8482;54.396;18.590;2023-05-25T05:28:47;101840.88;;;16.21;70.43
48606;BME280;8482;54.396;18.590;2023-05-25T05:31:13;101842.44;;;16.23;70.12
48606;BME280;8482;54.396;18.590;2023-05-25T05:33:42;101832.19;;;16.29;69.85
48606;BME280;8482;54.396;18.590;2023-05-25T05:36:08;101835.19;;;16.35;70.00
48606;BME280;8482;54.396;18.590;2023-05-25T05:38:34;101836.34;;;16.43;69.87
48606;BME280;8482;54.396;18.590;2023-05-25T05:40:59;101838.34;;;16.50;69.72
48606;BME280;8482;54.396;18.590;2023-05-25T05:43:27;101839.53;;;16.58;69.51
48606;BME280;8482;54.396;18.590;2023-05-25T05:45:53;101837.56;;;16.60;68.92
48606;BME280;8482;54.396;18.590;2023-05-25T05:48:19;101843.63;;;16.62;68.83
48606;BME280;8482;54.396;18.590;2023-05-25T05:50:44;101850.97;;;16.69;68.65
48606;BME280;8482;54.396;18.590;2023-05-25T05:53:10;101857.63;;;16.75;68.76
48606;BME280;8482;54.396;18.590;2023-05-25T05:55:36;101857.25;;;16.80;68.75
48606;BME280;8482;54.396;18.590;2023-05-25T05:58:02;101852.19;;;16.87;68.71
48606;BME280;8482;54.396;18.590;2023-05-25T06:00:28;101850.94;;;16.91;68.39
48606;BME280;8482;54.396;18.590;2023-05-25T06:02:54;101854.66;;;16.99;68.16
48606;BME280;8482;54.396;18.590;2023-05-25T06:05:19;101855.09;;;17.05;67.97
48606;BME280;8482;54.396;18.590;2023-05-25T06:07:46;101849.19;;;17.11;67.63
48606;BME280;8482;54.396;18.590;2023-05-25T06:10:12;101855.81;;;17.16;67.54
48606;BME280;8482;54.396;18.590;2023-05-25T06:12:38;101856.00;;;17.25;67.37
48606;BME280;8482;54.396;18.590;2023-05-25T06:15:04;101862.50;;;17.32;67.03
48606;BME280;8482;54.396;18.590;2023-05-25T06:17:30;101856.00;;;17.35;66.51
48606;BME280;8482;54.396;18.590;2023-05-25T06:19:56;101858.84;;;17.43;66.07
48606;BME280;8482;54.396;18.590;2023-05-25T06:22:22;101867.44;;;17.46;65.69
48606;BME280;8482;54.396;18.590;2023-05-25T06:24:52;101864.22;;;17.53;65.76
48606;BME280;8482;54.396;18.590;2023-05-25T06:27:18;101863.81;;;17.57;65.45
48606;BME280;8482;54.396;18.590;2023-05-25T06:29:44;101872.13;;;17.64;65.55
48606;BME280;8482;54.396;18.590;2023-05-25T06:32:10;101871.72;;;17.69;65.21
48606;BME280;8482;54.396;18.590;2023-05-25T06:34:36;101863.09;;;17.75;64.83
48606;BME280;8482;54.396;18.590;2023-05-25T06:37:03;101873.97;;;17.83;64.59
48606;BME280;8482;54.396;18.590;2023-05-25T06:39:29;101870.16;;;17.86;64.38
48606;BME280;8482;54.396;18.590;2023-05-25T06:41:54;101881.72;;;17.96;64.21
48606;BME280;8482;54.396;18.590;2023-05-25T06:44:20;101880.34;;;18.02;63.78
48606;BME280;8482;54.396;18.590;2023-05-25T06:46:46;101879.06;;;18.06;63.29
48606;BME280;8482;54.396;18.590;2023-05-25T06:49:12;101887.41;;;18.13;62.91
48606;BME280;8482;54.396;18.590;2023-05-25T06:51:38;101883.28;;;18.18;62.73
48606;BME280;8482;54.396;18.590;2023-05-25T06:54:03;101878.47;;;18.22;62.30
48606;BME280;8482;54.396;18.590;2023-05-25T06:56:29;101887.50;;;18.31;62.08
48606;BME280;8482;54.396;18.590;2023-05-25T06:58:55;101883.38;;;18.36;62.06
48606;BME280;8482;54.396;18.590;2023-05-25T07:01:21;101879.44;;;18.41;62.27
48606;BME280;8482;54.396;18.590;2023-05-25T07:03:47;101878.53;;;18.50;62.19
48606;BME280;8482;54.396;18.590;2023-05-25T07:06:13;101882.81;;;18.52;61.98
48606;BME280;8482;54.396;18.590;2023-05-25T07:08:39;101885.59;;;18.61;61.63
48606;BME280;8482;54.396;18.590;2023-05-25T07:11:05;101888.81;;;18.64;61.68
48606;BME280;8482;54.396;18.590;2023-05-25T07:13:35;101889.09;;;18.71;61.29
48606;BME280;8482;54.396;18.590;2023-05-25T07:16:00;101884.97;;;18.77;61.02
48606;BME280;8482;54.396;18.590;2023-05-25T07:18:26;101888.91;;;18.82;60.84
48606;BME280;8482;54.396;18.590;2023-05-25T07:20:52;101888.59;;;18.86;60.79
48606;BME280;8482;54.396;18.590;2023-05-25T07:23:19;101891.56;;;18.92;60.54
48606;BME280;8482;54.396;18.590;2023-05-25T07:25:45;101886.03;;;18.94;59.12
48606;BME280;8482;54.396;18.590;2023-05-25T07:28:11;101888.59;;;18.95;58.22
48606;BME280;8482;54.396;18.590;2023-05-25T07:30:37;101911.19;;;19.03;57.36
48606;BME280;8482;54.396;18.590;2023-05-25T07:33:02;101906.38;;;19.06;56.75
48606;BME280;8482;54.396;18.590;2023-05-25T07:35:28;101910.63;;;19.09;56.23
48606;BME280;8482;54.396;18.590;2023-05-25T07:37:59;101910.88;;;19.16;55.96
48606;BME280;8482;54.396;18.590;2023-05-25T07:40:26;101908.41;;;19.22;55.78
48606;BME280;8482;54.396;18.590;2023-05-25T07:42:53;101912.88;;;19.32;55.64
48606;BME280;8482;54.396;18.590;2023-05-25T07:45:19;101915.81;;;19.38;55.49
48606;BME280;8482;54.396;18.590;2023-05-25T07:47:46;101907.16;;;19.44;55.41
48606;BME280;8482;54.396;18.590;2023-05-25T07:50:13;101917.84;;;19.54;55.04
48606;BME280;8482;54.396;18.590;2023-05-25T07:52:40;101924.03;;;19.65;54.81
48606;BME280;8482;54.396;18.590;2023-05-25T07:55:06;101919.16;;;19.68;54.54
48606;BME280;8482;54.396;18.590;2023-05-25T07:57:34;101926.50;;;19.76;54.86
48606;BME280;8482;54.396;18.590;2023-05-25T08:00:00;101917.41;;;19.77;54.78
48606;BME280;8482;54.396;18.590;2023-05-25T08:02:26;101930.09;;;19.85;55.00
48606;BME280;8482;54.396;18.590;2023-05-25T08:04:52;101919.03;;;19.88;55.31
48606;BME280;8482;54.396;18.590;2023-05-25T08:07:19;101921.97;;;19.95;55.03
48606;BME280;8482;54.396;18.590;2023-05-25T08:09:45;101923.19;;;20.00;55.01
48606;BME280;8482;54.396;18.590;2023-05-25T08:12:11;101930.13;;;20.03;55.13
48606;BME280;8482;54.396;18.590;2023-05-25T08:14:37;101931.47;;;20.07;55.42
48606;BME280;8482;54.396;18.590;2023-05-25T08:17:03;101943.66;;;20.11;55.08
48606;BME280;8482;54.396;18.590;2023-05-25T08:19:30;101946.75;;;20.16;54.30
48606;BME280;8482;54.396;18.590;2023-05-25T08:21:57;101951.25;;;20.16;53.14
48606;BME280;8482;54.396;18.590;2023-05-25T08:24:23;101947.75;;;20.15;52.85
48606;BME280;8482;54.396;18.590;2023-05-25T08:26:49;101948.44;;;20.17;52.51
48606;BME280;8482;54.396;18.590;2023-05-25T08:29:15;101948.44;;;20.17;52.53
48606;BME280;8482;54.396;18.590;2023-05-25T08:31:41;101946.75;;;20.16;52.71
48606;BME280;8482;54.396;18.590;2023-05-25T08:34:09;101948.78;;;20.23;52.51
48606;BME280;8482;54.396;18.590;2023-05-25T08:36:35;101948.66;;;20.24;52.55
48606;BME280;8482;54.396;18.590;2023-05-25T08:39:01;101951.56;;;20.31;52.58
48606;BME280;8482;54.396;18.590;2023-05-25T08:41:29;101955.78;;;20.33;52.14
48606;BME280;8482;54.396;18.590;2023-05-25T08:43:55;101951.22;;;20.34;52.09
48606;BME280;8482;54.396;18.590;2023-05-25T08:46:31;101959.53;;;20.41;51.69
48606;BME280;8482;54.396;18.590;2023-05-25T08:49:14;101968.19;;;20.44;51.23
48606;BME280;8482;54.396;18.590;2023-05-25T08:51:51;101968.19;;;20.44;50.55
48606;BME280;8482;54.396;18.590;2023-05-25T08:54:23;101964.78;;;20.42;50.66
48606;BME280;8482;54.396;18.590;2023-05-25T09:00:04;101963.31;;;20.48;50.03
48606;BME280;8482;54.396;18.590;2023-05-25T09:05:26;101967.22;;;20.54;50.21
48606;BME280;8482;54.396;18.590;2023-05-25T09:07:52;101962.84;;;20.52;50.59
48606;BME280;8482;54.396;18.590;2023-05-25T09:10:20;101973.97;;;20.58;50.95
48606;BME280;8482;54.396;18.590;2023-05-25T09:12:48;101975.22;;;20.63;51.00
48606;BME280;8482;54.396;18.590;2023-05-25T09:15:16;101980.97;;;20.68;51.17
48606;BME280;8482;54.396;18.590;2023-05-25T09:17:41;101965.88;;;20.76;51.16
48606;BME280;8482;54.396;18.590;2023-05-25T09:20:10;101966.31;;;20.71;50.66
48606;BME280;8482;54.396;18.590;2023-05-25T09:22:39;101972.81;;;20.78;50.96
48606;BME280;8482;54.396;18.590;2023-05-25T09:25:06;101968.94;;;20.81;50.75
48606;BME280;8482;54.396;18.590;2023-05-25T09:27:37;101969.81;;;20.81;51.26
48606;BME280;8482;54.396;18.590;2023-05-25T09:30:04;101967.25;;;20.80;51.47
48606;BME280;8482;54.396;18.590;2023-05-25T09:32:31;101963.84;;;20.78;51.58
48606;BME280;8482;54.396;18.590;2023-05-25T09:35:10;101962.53;;;20.82;51.29
48606;BME280;8482;54.396;18.590;2023-05-25T09:37:38;101973.84;;;20.86;51.07
48606;BME280;8482;54.396;18.590;2023-05-25T09:40:05;101964.28;;;20.91;51.50
48606;BME280;8482;54.396;18.590;2023-05-25T09:42:36;101970.72;;;20.98;51.16
48606;BME280;8482;54.396;18.590;2023-05-25T09:45:03;101965.72;;;21.04;51.01
48606;BME280;8482;54.396;18.590;2023-05-25T09:47:30;101957.97;;;21.09;50.73
48606;BME280;8482;54.396;18.590;2023-05-25T09:49:57;101968.13;;;21.15;50.69
48606;BME280;8482;54.396;18.590;2023-05-25T09:52:24;101965.94;;;21.19;50.85
48606;BME280;8482;54.396;18.590;2023-05-25T09:54:51;101957.53;;;21.22;50.59
48606;BME280;8482;54.396;18.590;2023-05-25T09:57:19;101963.13;;;21.28;50.82
48606;BME280;8482;54.396;18.590;2023-05-25T09:59:46;101974.56;;;21.31;50.45
48606;BME280;8482;54.396;18.590;2023-05-25T10:02:13;101969.72;;;21.34;50.56
48606;BME280;8482;54.396;18.590;2023-05-25T10:04:39;101959.75;;;21.35;50.19
48606;BME280;8482;54.396;18.590;2023-05-25T10:07:07;101957.75;;;21.37;50.52
48606;BME280;8482;54.396;18.590;2023-05-25T10:09:39;101964.00;;;21.46;49.99
48606;BME280;8482;54.396;18.590;2023-05-25T10:12:06;101958.44;;;21.47;50.27
48606;BME280;8482;54.396;18.590;2023-05-25T10:14:36;101960.13;;;21.48;50.32
48606;BME280;8482;54.396;18.590;2023-05-25T10:17:05;101956.94;;;21.53;50.52
48606;BME280;8482;54.396;18.590;2023-05-25T10:19:39;101956.44;;;21.57;50.48
48606;BME280;8482;54.396;18.590;2023-05-25T10:22:24;101960.91;;;21.67;50.36
48606;BME280;8482;54.396;18.590;2023-05-25T10:25:06;101959.34;;;21.64;49.99
48606;BME280;8482;54.396;18.590;2023-05-25T10:30:22;101964.09;;;21.62;49.35
48606;BME280;8482;54.396;18.590;2023-05-25T10:32:50;101969.50;;;21.70;49.54
48606;BME280;8482;54.396;18.590;2023-05-25T10:35:18;101966.31;;;21.75;49.64
48606;BME280;8482;54.396;18.590;2023-05-25T10:37:44;101963.63;;;21.83;48.97
48606;BME280;8482;54.396;18.590;2023-05-25T10:40:12;101959.75;;;21.86;49.31
48606;BME280;8482;54.396;18.590;2023-05-25T10:42:40;101960.94;;;22.00;49.18
48606;BME280;8482;54.396;18.590;2023-05-25T10:45:08;101962.78;;;22.08;49.32
48606;BME280;8482;54.396;18.590;2023-05-25T10:47:39;101965.53;;;22.16;48.94
48606;BME280;8482;54.396;18.590;2023-05-25T10:50:24;101958.94;;;22.18;48.54
48606;BME280;8482;54.396;18.590;2023-05-25T10:53:01;101948.63;;;22.22;48.07
48606;BME280;8482;54.396;18.590;2023-05-25T10:56:01;101974.78;;;22.30;47.53
48606;BME280;8482;54.396;18.590;2023-05-25T10:58:28;101971.25;;;22.29;47.26
48606;BME280;8482;54.396;18.590;2023-05-25T11:01:11;101971.59;;;22.26;47.16
48606;BME280;8482;54.396;18.590;2023-05-25T11:09:29;101968.38;;;22.39;47.78
48606;BME280;8482;54.396;18.590;2023-05-25T11:17:12;101959.06;;;22.33;47.41
48606;BME280;8482;54.396;18.590;2023-05-25T11:24:52;101969.56;;;22.45;46.80
48606;BME280;8482;54.396;18.590;2023-05-25T11:27:30;101963.66;;;22.41;46.85
48606;BME280;8482;54.396;18.590;2023-05-25T11:29:58;101983.09;;;22.45;46.70
48606;BME280;8482;54.396;18.590;2023-05-25T11:32:25;101967.72;;;22.45;46.54
48606;BME280;8482;54.396;18.590;2023-05-25T11:34:52;101969.56;;;22.53;46.43
48606;BME280;8482;54.396;18.590;2023-05-25T11:37:20;101970.25;;;22.55;46.08
48606;BME280;8482;54.396;18.590;2023-05-25T11:39:51;101974.28;;;22.68;46.13
48606;BME280;8482;54.396;18.590;2023-05-25T11:42:22;101969.88;;;22.75;46.05
48606;BME280;8482;54.396;18.590;2023-05-25T11:44:48;101977.59;;;22.86;45.49
48606;BME280;8482;54.396;18.590;2023-05-25T11:47:15;101974.75;;;22.88;45.37
48606;BME280;8482;54.396;18.590;2023-05-25T11:49:47;101975.41;;;22.98;45.00
48606;BME280;8482;54.396;18.590;2023-05-25T11:52:17;101980.28;;;23.03;44.74
48606;BME280;8482;54.396;18.590;2023-05-25T11:54:43;101978.44;;;22.95;44.66
48606;BME280;8482;54.396;18.590;2023-05-25T11:57:23;101984.84;;;23.02;44.77
48606;BME280;8482;54.396;18.590;2023-05-25T11:59:55;101986.69;;;23.02;44.88
48606;BME280;8482;54.396;18.590;2023-05-25T12:02:23;101980.81;;;22.98;45.15
48606;BME280;8482;54.396;18.590;2023-05-25T12:04:56;101982.31;;;23.01;45.14
48606;BME280;8482;54.396;18.590;2023-05-25T12:07:24;101958.53;;;22.88;45.04
48606;BME280;8482;54.396;18.590;2023-05-25T12:09:51;101982.00;;;22.95;44.86
48606;BME280;8482;54.396;18.590;2023-05-25T12:12:18;101975.91;;;22.93;44.84
48606;BME280;8482;54.396;18.590;2023-05-25T12:14:48;101976.25;;;22.90;44.60
48606;BME280;8482;54.396;18.590;2023-05-25T12:17:20;101976.28;;;22.82;44.38
48606;BME280;8482;54.396;18.590;2023-05-25T12:19:47;101986.59;;;22.78;44.87
48606;BME280;8482;54.396;18.590;2023-05-25T12:22:13;101985.41;;;22.73;45.86
48606;BME280;8482;54.396;18.590;2023-05-25T12:24:39;101987.28;;;22.72;47.35
48606;BME280;8482;54.396;18.590;2023-05-25T12:27:17;101991.00;;;22.71;48.29
48606;BME280;8482;54.396;18.590;2023-05-25T12:29:47;101988.16;;;22.64;48.90
48606;BME280;8482;54.396;18.590;2023-05-25T12:32:13;101989.84;;;22.49;49.19
48606;BME280;8482;54.396;18.590;2023-05-25T12:34:39;101983.25;;;22.35;50.00
48606;BME280;8482;54.396;18.590;2023-05-25T12:37:18;101992.03;;;22.29;50.54
48606;BME280;8482;54.396;18.590;2023-05-25T12:39:44;101976.47;;;22.14;50.07
48606;BME280;8482;54.396;18.590;2023-05-25T12:42:15;101991.16;;;22.03;49.36
48606;BME280;8482;54.396;18.590;2023-05-25T12:44:43;101997.88;;;21.91;49.63
48606;BME280;8482;54.396;18.590;2023-05-25T12:47:19;101988.09;;;21.82;49.06
48606;BME280;8482;54.396;18.590;2023-05-25T12:50:08;101999.03;;;21.72;48.44
48606;BME280;8482;54.396;18.590;2023-05-25T12:52:41;101981.59;;;21.58;48.28
48606;BME280;8482;54.396;18.590;2023-05-25T12:55:28;101970.41;;;21.44;48.03
48606;BME280;8482;54.396;18.590;2023-05-25T12:58:03;101991.50;;;21.41;48.09
48606;BME280;8482;54.396;18.590;2023-05-25T13:00:39;101984.72;;;21.28;48.62
48606;BME280;8482;54.396;18.590;2023-05-25T13:03:06;101986.84;;;21.25;49.00
48606;BME280;8482;54.396;18.590;2023-05-25T13:05:34;101988.53;;;21.18;48.66
48606;BME280;8482;54.396;18.590;2023-05-25T13:08:05;101969.94;;;21.06;49.23
48606;BME280;8482;54.396;18.590;2023-05-25T13:10:32;101981.41;;;21.08;49.19
48606;BME280;8482;54.396;18.590;2023-05-25T13:13:00;101985.25;;;21.06;49.27
48606;BME280;8482;54.396;18.590;2023-05-25T13:15:27;101966.72;;;21.03;49.21
48606;BME280;8482;54.396;18.590;2023-05-25T13:17:53;101983.56;;;21.05;49.07
48606;BME280;8482;54.396;18.590;2023-05-25T13:20:24;101978.16;;;21.05;49.62
48606;BME280;8482;54.396;18.590;2023-05-25T13:22:52;101977.34;;;21.04;49.22
48606;BME280;8482;54.396;18.590;2023-05-25T13:25:18;101976.00;;;21.08;49.14